sensor_id;sensor_type;location;lat;lon;timestamp;pressure;altitude;pressure_sealevel;temperature;humidity
5283;BME280;15376;48.540;9.268;2022-11-15T00:00:29;97315.53;;;5.72;100.00
5283;BME280;15376;48.540;9.268;2022-11-15T00:02:54;97325.72;;;5.66;100.00
5283;BME280;15376;48.540;9.268;2022-11-15T00:05:20;97313.81;;;5.54;100.00
5283;BME280;15376;48.540;9.268;2022-11-15T00:07:45;97295.94;;;5.40;100.00
5283;BME280;15376;48.540;9.268;2022-11-15T00:10:10;97310.81;;;5.49;100.00
5283;BME280;15376;48.540;9.268;2022-11-15T00:12:36;97312.09;;;5.45;100.00
5283;BME280;15376;48.540;9.268;2022-11-15T00:15:01;97306.47;;;5.40;100.00
5283;BME280;15376;48.540;9.268;2022-11-15T00:17:27;97310.09;;;5.39;100.00
5283;BME280;15376;48.540;9.268;2022-11-15T00:19:52;97279.03;;;5.17;100.00
5283;BME280;15376;48.540;9.268;2022-11-15T00:22:17;97300.13;;;5.25;100.00
5283;BME280;15376;48.540;9.268;2022-11-15T00:24:43;97305.91;;;5.28;100.00
5283;BME280;15376;48.540;9.268;2022-11-15T00:27:08;97291.81;;;5.12;100.00
5283;BME280;15376;48.540;9.268;2022-11-15T00:29:33;97295.50;;;5.19;100.00
5283;BME280;15376;48.540;9.268;2022-11-15T00:31:59;97306.16;;;5.17;100.00
5283;BME280;15376;48.540;9.268;2022-11-15T00:34:24;97291.91;;;5.02;100.00
5283;BME280;15376;48.540;9.268;2022-11-15T00:36:49;97293.72;;;5.01;100.00
5283;BME280;15376;48.540;9.268;2022-11-15T00:39:15;97289.94;;;5.04;100.00
5283;BME280;15376;48.540;9.268;2022-11-15T00:41:40;97289.13;;;5.03;100.00
5283;BME280;15376;48.540;9.268;2022-11-15T00:44:05;97280.03;;;4.98;100.00
5283;BME280;15376;48.540;9.268;2022-11-15T00:46:31;97256.38;;;4.80;100.00
5283;BME280;15376;48.540;9.268;2022-11-15T00:48:56;97254.41;;;4.82;100.00
5283;BME280;15376;48.540;9.268;2022-11-15T00:51:21;97287.41;;;4.94;100.00
5283;BME280;15376;48.540;9.268;2022-11-15T00:53:47;97287.03;;;4.89;100.00
5283;BME280;15376;48.540;9.268;2022-11-15T00:56:12;97257.53;;;4.78;100.00
5283;BME280;15376;48.540;9.268;2022-11-15T00:58:37;97279.19;;;4.97;100.00
5283;BME280;15376;48.540;9.268;2022-11-15T01:01:11;97275.06;;;4.95;100.00
5283;BME280;15376;48.540;9.268;2022-11-15T01:03:38;97276.50;;;4.89;100.00
5283;BME280;15376;48.540;9.268;2022-11-15T01:06:04;97273.50;;;4.84;100.00
5283;BME280;15376;48.540;9.268;2022-11-15T01:08:29;97248.88;;;4.67;100.00
5283;BME280;15376;48.540;9.268;2022-11-15T01:11:00;97246.63;;;4.55;100.00
5283;BME280;15376;48.540;9.268;2022-11-15T01:13:25;97280.97;;;4.71;100.00
5283;BME280;15376;48.540;9.268;2022-11-15T01:15:51;97267.38;;;4.76;100.00
5283;BME280;15376;48.540;9.268;2022-11-15T01:18:16;97272.69;;;4.66;100.00
5283;BME280;15376;48.540;9.268;2022-11-15T01:20:41;97260.75;;;4.54;100.00
5283;BME280;15376;48.540;9.268;2022-11-15T01:23:07;97265.41;;;4.60;100.00
5283;BME280;15376;48.540;9.268;2022-11-15T01:25:32;97266.09;;;4.62;100.00
5283;BME280;15376;48.540;9.268;2022-11-15T01:27:58;97273.97;;;4.62;100.00
5283;BME280;15376;48.540;9.268;2022-11-15T01:30:23;97256.38;;;4.45;100.00
5283;BME280;15376;48.540;9.268;2022-11-15T01:32:48;97263.31;;;4.46;100.00
5283;BME280;15376;48.540;9.268;2022-11-15T01:35:14;97261.59;;;4.37;100.00
5283;BME280;15376;48.540;9.268;2022-11-15T01:37:39;97260.25;;;4.32;100.00
5283;BME280;15376;48.540;9.268;2022-11-15T01:40:05;97261.50;;;4.28;100.00
5283;BME280;15376;48.540;9.268;2022-11-15T01:42:30;97248.53;;;4.27;100.00
5283;BME280;15376;48.540;9.268;2022-11-15T01:44:56;97252.56;;;4.21;100.00
5283;BME280;15376;48.540;9.268;2022-11-15T01:47:31;97241.97;;;4.13;100.00
5283;BME280;15376;48.540;9.268;2022-11-15T01:50:01;97252.88;;;4.18;100.00
5283;BME280;15376;48.540;9.268;2022-11-15T01:52:30;97256.03;;;4.22;100.00
5283;BME280;15376;48.540;9.268;2022-11-15T01:57:28;97240.03;;;4.15;100.00
5283;BME280;15376;48.540;9.268;2022-11-15T01:59:54;97233.69;;;4.08;100.00
5283;BME280;15376;48.540;9.268;2022-11-15T02:02:21;97246.16;;;4.06;100.00
5283;BME280;15376;48.540;9.268;2022-11-15T02:04:46;97245.19;;;4.07;100.00
5283;BME280;15376;48.540;9.268;2022-11-15T02:07:15;97246.44;;;4.03;100.00
5283;BME280;15376;48.540;9.268;2022-11-15T02:09:42;97240.91;;;4.06;100.00
5283;BME280;15376;48.540;9.268;2022-11-15T02:12:09;97234.28;;;4.02;100.00
5283;BME280;15376;48.540;9.268;2022-11-15T02:14:36;97233.31;;;4.03;100.00
5283;BME280;15376;48.540;9.268;2022-11-15T02:19:48;97229.34;;;3.99;100.00
5283;BME280;15376;48.540;9.268;2022-11-15T02:33:03;97217.19;;;3.98;100.00
5283;BME280;15376;48.540;9.268;2022-11-15T02:38:17;97220.66;;;3.98;100.00
5283;BME280;15376;48.540;9.268;2022-11-15T02:40:59;97208.00;;;4.02;100.00
5283;BME280;15376;48.540;9.268;2022-11-15T02:44:49;97218.69;;;4.18;100.00
5283;BME280;15376;48.540;9.268;2022-11-15T02:46:48;97200.81;;;4.04;100.00
5283;BME280;15376;48.540;9.268;2022-11-15T02:49:34;97207.66;;;4.15;100.00
5283;BME280;15376;48.540;9.268;2022-11-15T02:52:00;97182.50;;;4.12;100.00
5283;BME280;15376;48.540;9.268;2022-11-15T02:54:31;97202.34;;;4.24;100.00
5283;BME280;15376;48.540;9.268;2022-11-15T02:57:12;97195.13;;;4.26;100.00
5283;BME280;15376;48.540;9.268;2022-11-15T03:02:46;97188.97;;;4.35;100.00
5283;BME280;15376;48.540;9.268;2022-11-15T03:08:25;97180.94;;;4.37;100.00
5283;BME280;15376;48.540;9.268;2022-11-15T03:11:13;97186.81;;;4.57;100.00
5283;BME280;15376;48.540;9.268;2022-11-15T03:14:07;97183.06;;;4.59;100.00
5283;BME280;15376;48.540;9.268;2022-11-15T03:16:39;97181.13;;;4.44;100.00
5283;BME280;15376;48.540;9.268;2022-11-15T03:19:13;97173.63;;;4.49;100.00
5283;BME280;15376;48.540;9.268;2022-11-15T03:21:40;97171.13;;;4.47;100.00
5283;BME280;15376;48.540;9.268;2022-11-15T03:24:07;97175.88;;;4.44;100.00
5283;BME280;15376;48.540;9.268;2022-11-15T03:26:35;97160.28;;;4.24;100.00
5283;BME280;15376;48.540;9.268;2022-11-15T03:29:16;97143.63;;;4.16;100.00
5283;BME280;15376;48.540;9.268;2022-11-15T03:31:46;97159.63;;;4.22;100.00
5283;BME280;15376;48.540;9.268;2022-11-15T03:37:02;97162.47;;;4.29;100.00
5283;BME280;15376;48.540;9.268;2022-11-15T03:39:28;97150.00;;;4.31;100.00
5283;BME280;15376;48.540;9.268;2022-11-15T03:47:20;97130.19;;;4.19;100.00
5283;BME280;15376;48.540;9.268;2022-11-15T03:49:53;97142.88;;;4.23;100.00
5283;BME280;15376;48.540;9.268;2022-11-15T03:52:21;97121.41;;;4.10;100.00
5283;BME280;15376;48.540;9.268;2022-11-15T03:54:52;97143.47;;;4.17;100.00
5283;BME280;15376;48.540;9.268;2022-11-15T03:57:17;97133.47;;;4.03;100.00
5283;BME280;15376;48.540;9.268;2022-11-15T03:59:43;97143.66;;;3.98;100.00
5283;BME280;15376;48.540;9.268;2022-11-15T04:02:08;97145.91;;;3.93;100.00
5283;BME280;15376;48.540;9.268;2022-11-15T04:04:33;97144.53;;;3.89;100.00
5283;BME280;15376;48.540;9.268;2022-11-15T04:06:59;97141.53;;;3.84;100.00
5283;BME280;15376;48.540;9.268;2022-11-15T04:09:24;97137.63;;;3.88;100.00
5283;BME280;15376;48.540;9.268;2022-11-15T04:11:49;97144.63;;;3.97;100.00
5283;BME280;15376;48.540;9.268;2022-11-15T04:14:15;97136.50;;;3.90;100.00
5283;BME280;15376;48.540;9.268;2022-11-15T04:16:40;97139.88;;;3.83;100.00
5283;BME280;15376;48.540;9.268;2022-11-15T04:19:05;97145.44;;;3.80;100.00
5283;BME280;15376;48.540;9.268;2022-11-15T04:21:49;97139.78;;;3.75;100.00
5283;BME280;15376;48.540;9.268;2022-11-15T04:24:33;97146.31;;;3.71;100.00
5283;BME280;15376;48.540;9.268;2022-11-15T04:26:59;97154.09;;;3.62;100.00
5283;BME280;15376;48.540;9.268;2022-11-15T04:29:25;97137.59;;;3.52;100.00
5283;BME280;15376;48.540;9.268;2022-11-15T04:32:01;97147.53;;;3.58;100.00
5283;BME280;15376;48.540;9.268;2022-11-15T04:34:26;97151.94;;;3.58;100.00
5283;BME280;15376;48.540;9.268;2022-11-15T04:36:52;97140.63;;;3.57;100.00
5283;BME280;15376;48.540;9.268;2022-11-15T04:39:35;97136.91;;;3.50;100.00
5283;BME280;15376;48.540;9.268;2022-11-15T04:42:01;97134.44;;;3.49;100.00
5283;BME280;15376;48.540;9.268;2022-11-15T04:44:26;97118.31;;;3.44;100.00
5283;BME280;15376;48.540;9.268;2022-11-15T04:46:51;97120.09;;;3.43;100.00
5283;BME280;15376;48.540;9.268;2022-11-15T04:49:17;97131.44;;;3.44;100.00
5283;BME280;15376;48.540;9.268;2022-11-15T04:51:43;97131.56;;;3.42;100.00
5283;BME280;15376;48.540;9.268;2022-11-15T04:54:08;97126.03;;;3.45;100.00
5283;BME280;15376;48.540;9.268;2022-11-15T04:56:33;97101.31;;;3.20;100.00
5283;BME280;15376;48.540;9.268;2022-11-15T04:58:59;97123.84;;;3.41;100.00
5283;BME280;15376;48.540;9.268;2022-11-15T05:01:24;97124.91;;;3.48;100.00
5283;BME280;15376;48.540;9.268;2022-11-15T05:03:49;97124.09;;;3.47;100.00
5283;BME280;15376;48.540;9.268;2022-11-15T05:06:33;97123.25;;;3.47;100.00
5283;BME280;15376;48.540;9.268;2022-11-15T05:08:59;97113.44;;;3.49;100.00
5283;BME280;15376;48.540;9.268;2022-11-15T05:11:24;97124.16;;;3.38;100.00
5283;BME280;15376;48.540;9.268;2022-11-15T05:13:50;97114.19;;;3.41;100.00
5283;BME280;15376;48.540;9.268;2022-11-15T05:16:15;97110.97;;;3.65;100.00
5283;BME280;15376;48.540;9.268;2022-11-15T05:18:41;97111.44;;;3.78;100.00
5283;BME280;15376;48.540;9.268;2022-11-15T05:21:08;97109.13;;;3.93;100.00
5283;BME280;15376;48.540;9.268;2022-11-15T05:23:34;97118.03;;;4.00;100.00
5283;BME280;15376;48.540;9.268;2022-11-15T05:26:03;97095.91;;;3.85;100.00
5283;BME280;15376;48.540;9.268;2022-11-15T05:28:29;97090.13;;;3.81;100.00
5283;BME280;15376;48.540;9.268;2022-11-15T05:31:02;97113.16;;;3.87;100.00
5283;BME280;15376;48.540;9.268;2022-11-15T05:33:28;97111.66;;;3.85;100.00
5283;BME280;15376;48.540;9.268;2022-11-15T05:36:17;97095.44;;;3.72;100.00
5283;BME280;15376;48.540;9.268;2022-11-15T05:38:45;97109.94;;;3.76;100.00
5283;BME280;15376;48.540;9.268;2022-11-15T05:41:12;97100.09;;;3.78;100.00
5283;BME280;15376;48.540;9.268;2022-11-15T05:43:39;97088.84;;;3.67;100.00
5283;BME280;15376;48.540;9.268;2022-11-15T05:46:05;97102.06;;;3.76;100.00
5283;BME280;15376;48.540;9.268;2022-11-15T05:48:32;97094.56;;;3.81;100.00
5283;BME280;15376;48.540;9.268;2022-11-15T05:50:59;97098.16;;;3.80;100.00
5283;BME280;15376;48.540;9.268;2022-11-15T05:53:25;97088.53;;;3.71;100.00
5283;BME280;15376;48.540;9.268;2022-11-15T05:55:51;97104.81;;;3.74;100.00
5283;BME280;15376;48.540;9.268;2022-11-15T05:58:17;97107.91;;;3.69;100.00
5283;BME280;15376;48.540;9.268;2022-11-15T06:00:43;97094.47;;;3.55;100.00
5283;BME280;15376;48.540;9.268;2022-11-15T06:03:09;97085.63;;;3.56;100.00
5283;BME280;15376;48.540;9.268;2022-11-15T06:05:34;97110.22;;;3.55;100.00
5283;BME280;15376;48.540;9.268;2022-11-15T06:08:00;97076.06;;;3.37;100.00
5283;BME280;15376;48.540;9.268;2022-11-15T06:10:25;97096.56;;;3.51;100.00
5283;BME280;15376;48.540;9.268;2022-11-15T06:13:01;97099.06;;;3.53;100.00
5283;BME280;15376;48.540;9.268;2022-11-15T06:15:27;97102.50;;;3.53;100.00
5283;BME280;15376;48.540;9.268;2022-11-15T06:17:56;97107.06;;;3.51;100.00
5283;BME280;15376;48.540;9.268;2022-11-15T06:20:23;97103.78;;;3.49;100.00
5283;BME280;15376;48.540;9.268;2022-11-15T06:22:48;97085.50;;;3.30;100.00
5283;BME280;15376;48.540;9.268;2022-11-15T06:25:14;97106.16;;;3.43;100.00
5283;BME280;15376;48.540;9.268;2022-11-15T06:27:39;97109.50;;;3.35;100.00
5283;BME280;15376;48.540;9.268;2022-11-15T06:30:05;97110.88;;;3.39;100.00
5283;BME280;15376;48.540;9.268;2022-11-15T06:32:30;97100.81;;;3.34;100.00
5283;BME280;15376;48.540;9.268;2022-11-15T06:34:56;97103.97;;;3.38;100.00
5283;BME280;15376;48.540;9.268;2022-11-15T06:37:21;97105.09;;;3.35;100.00
5283;BME280;15376;48.540;9.268;2022-11-15T06:39:46;97097.38;;;3.34;100.00
5283;BME280;15376;48.540;9.268;2022-11-15T06:42:12;97105.91;;;3.36;100.00
5283;BME280;15376;48.540;9.268;2022-11-15T06:44:37;97116.81;;;3.41;100.00
5283;BME280;15376;48.540;9.268;2022-11-15T06:47:02;97106.94;;;3.53;100.00
5283;BME280;15376;48.540;9.268;2022-11-15T06:49:27;97100.72;;;3.54;100.00
5283;BME280;15376;48.540;9.268;2022-11-15T06:51:56;97108.63;;;3.62;100.00
5283;BME280;15376;48.540;9.268;2022-11-15T06:54:21;97101.38;;;3.74;100.00
5283;BME280;15376;48.540;9.268;2022-11-15T06:56:47;97098.44;;;3.77;100.00
5283;BME280;15376;48.540;9.268;2022-11-15T06:59:12;97102.50;;;3.89;100.00
5283;BME280;15376;48.540;9.268;2022-11-15T07:01:38;97103.88;;;3.93;100.00
5283;BME280;15376;48.540;9.268;2022-11-15T07:04:03;97100.31;;;4.02;100.00
5283;BME280;15376;48.540;9.268;2022-11-15T07:06:28;97104.59;;;4.03;100.00
5283;BME280;15376;48.540;9.268;2022-11-15T07:08:54;97089.75;;;3.94;100.00
5283;BME280;15376;48.540;9.268;2022-11-15T07:11:19;97106.00;;;4.15;100.00
5283;BME280;15376;48.540;9.268;2022-11-15T07:13:44;97095.13;;;4.10;100.00
5283;BME280;15376;48.540;9.268;2022-11-15T07:16:10;97105.47;;;4.29;100.00
5283;BME280;15376;48.540;9.268;2022-11-15T07:18:37;97100.59;;;4.43;100.00
5283;BME280;15376;48.540;9.268;2022-11-15T07:21:04;97106.28;;;4.56;100.00
5283;BME280;15376;48.540;9.268;2022-11-15T07:23:30;97072.22;;;4.46;100.00
5283;BME280;15376;48.540;9.268;2022-11-15T07:25:57;97099.50;;;4.71;100.00
5283;BME280;15376;48.540;9.268;2022-11-15T07:28:23;97103.47;;;4.75;100.00
5283;BME280;15376;48.540;9.268;2022-11-15T07:30:49;97101.16;;;4.80;100.00
5283;BME280;15376;48.540;9.268;2022-11-15T07:33:14;97105.97;;;4.85;100.00
5283;BME280;15376;48.540;9.268;2022-11-15T07:35:39;97099.59;;;4.95;100.00
5283;BME280;15376;48.540;9.268;2022-11-15T07:38:05;97086.75;;;4.92;100.00
5283;BME280;15376;48.540;9.268;2022-11-15T07:40:31;97104.41;;;5.00;100.00
5283;BME280;15376;48.540;9.268;2022-11-15T07:43:05;97098.97;;;5.01;100.00
5283;BME280;15376;48.540;9.268;2022-11-15T07:45:31;97092.13;;;5.09;100.00
5283;BME280;15376;48.540;9.268;2022-11-15T07:47:59;97087.41;;;5.28;100.00
5283;BME280;15376;48.540;9.268;2022-11-15T07:50:24;97087.63;;;5.51;100.00
5283;BME280;15376;48.540;9.268;2022-11-15T07:52:55;97090.28;;;5.67;100.00
5283;BME280;15376;48.540;9.268;2022-11-15T07:55:21;97080.47;;;6.02;100.00
5283;BME280;15376;48.540;9.268;2022-11-15T07:57:46;97074.38;;;6.18;100.00
5283;BME280;15376;48.540;9.268;2022-11-15T08:00:12;97070.59;;;6.28;100.00
5283;BME280;15376;48.540;9.268;2022-11-15T08:02:38;97066.25;;;6.52;100.00
5283;BME280;15376;48.540;9.268;2022-11-15T08:05:03;97058.66;;;6.73;100.00
5283;BME280;15376;48.540;9.268;2022-11-15T08:07:30;97065.00;;;6.95;100.00
5283;BME280;15376;48.540;9.268;2022-11-15T08:09:55;97018.66;;;6.84;100.00
5283;BME280;15376;48.540;9.268;2022-11-15T08:12:21;97057.78;;;7.20;100.00
5283;BME280;15376;48.540;9.268;2022-11-15T08:14:47;97038.03;;;7.16;100.00
5283;BME280;15376;48.540;9.268;2022-11-15T08:17:12;97056.44;;;7.24;100.00
5283;BME280;15376;48.540;9.268;2022-11-15T08:19:37;97055.75;;;7.30;100.00
5283;BME280;15376;48.540;9.268;2022-11-15T08:22:02;97051.94;;;7.32;100.00
5283;BME280;15376;48.540;9.268;2022-11-15T08:24:28;97046.00;;;7.30;100.00
5283;BME280;15376;48.540;9.268;2022-11-15T08:26:53;97046.22;;;7.21;100.00
5283;BME280;15376;48.540;9.268;2022-11-15T08:29:19;97029.28;;;7.15;100.00
5283;BME280;15376;48.540;9.268;2022-11-15T08:31:44;97044.47;;;7.13;100.00
5283;BME280;15376;48.540;9.268;2022-11-15T08:34:09;97030.31;;;7.06;100.00
5283;BME280;15376;48.540;9.268;2022-11-15T08:36:35;97036.59;;;7.05;100.00
5283;BME280;15376;48.540;9.268;2022-11-15T08:39:00;97035.47;;;6.91;100.00
5283;BME280;15376;48.540;9.268;2022-11-15T08:41:37;97044.03;;;6.93;100.00
5283;BME280;15376;48.540;9.268;2022-11-15T08:44:02;97037.75;;;7.02;100.00
5283;BME280;15376;48.540;9.268;2022-11-15T08:46:28;97030.00;;;7.01;100.00
5283;BME280;15376;48.540;9.268;2022-11-15T08:48:53;97039.88;;;7.38;100.00
5283;BME280;15376;48.540;9.268;2022-11-15T08:51:19;97034.06;;;7.65;100.00
5283;BME280;15376;48.540;9.268;2022-11-15T08:53:44;97031.13;;;8.06;100.00
5283;BME280;15376;48.540;9.268;2022-11-15T08:56:11;97028.00;;;8.02;100.00
5283;BME280;15376;48.540;9.268;2022-11-15T08:58:37;97026.75;;;8.13;100.00
5283;BME280;15376;48.540;9.268;2022-11-15T09:01:03;97028.63;;;8.27;100.00
5283;BME280;15376;48.540;9.268;2022-11-15T09:03:29;97031.78;;;8.46;100.00
5283;BME280;15376;48.540;9.268;2022-11-15T09:05:56;97022.84;;;8.47;100.00
5283;BME280;15376;48.540;9.268;2022-11-15T09:08:22;97026.59;;;8.67;100.00
5283;BME280;15376;48.540;9.268;2022-11-15T09:10:47;96996.00;;;8.50;100.00
5283;BME280;15376;48.540;9.268;2022-11-15T09:13:12;97016.47;;;8.56;100.00
5283;BME280;15376;48.540;9.268;2022-11-15T09:15:39;97018.53;;;8.46;100.00
5283;BME280;15376;48.540;9.268;2022-11-15T09:18:04;97010.44;;;8.62;100.00
5283;BME280;15376;48.540;9.268;2022-11-15T09:20:29;97018.22;;;8.78;100.00
5283;BME280;15376;48.540;9.268;2022-11-15T09:22:59;97011.06;;;8.93;100.00
5283;BME280;15376;48.540;9.268;2022-11-15T09:25:24;97012.16;;;9.14;100.00
5283;BME280;15376;48.540;9.268;2022-11-15T09:27:49;97006.03;;;8.98;100.00
5283;BME280;15376;48.540;9.268;2022-11-15T09:30:15;96999.34;;;9.17;100.00
5283;BME280;15376;48.540;9.268;2022-11-15T09:32:41;97002.56;;;9.13;100.00
5283;BME280;15376;48.540;9.268;2022-11-15T09:35:06;97003.44;;;9.20;100.00
5283;BME280;15376;48.540;9.268;2022-11-15T09:37:32;97009.19;;;9.23;100.00
5283;BME280;15376;48.540;9.268;2022-11-15T09:39:57;96993.47;;;9.22;100.00
5283;BME280;15376;48.540;9.268;2022-11-15T09:45:27;96997.31;;;10.19;100.00
5283;BME280;15376;48.540;9.268;2022-11-15T09:50:51;96994.03;;;10.86;100.00
5283;BME280;15376;48.540;9.268;2022-11-15T09:53:39;96990.38;;;10.87;100.00
5283;BME280;15376;48.540;9.268;2022-11-15T09:56:15;96992.94;;;10.67;100.00
5283;BME280;15376;48.540;9.268;2022-11-15T10:04:15;96986.69;;;10.88;100.00
5283;BME280;15376;48.540;9.268;2022-11-15T10:06:51;96976.78;;;11.10;100.00
5283;BME280;15376;48.540;9.268;2022-11-15T10:09:35;96978.53;;;11.44;100.00
5283;BME280;15376;48.540;9.268;2022-11-15T10:12:03;96971.00;;;11.74;100.00
5283;BME280;15376;48.540;9.268;2022-11-15T10:14:30;96962.88;;;11.89;100.00
5283;BME280;15376;48.540;9.268;2022-11-15T10:22:51;96966.16;;;12.30;100.00
5283;BME280;15376;48.540;9.268;2022-11-15T10:25:24;96966.97;;;12.31;100.00
5283;BME280;15376;48.540;9.268;2022-11-15T10:27:58;96956.53;;;12.16;100.00
5283;BME280;15376;48.540;9.268;2022-11-15T10:30:35;96952.03;;;12.17;100.00
5283;BME280;15376;48.540;9.268;2022-11-15T10:33:12;96952.00;;;12.30;100.00
5283;BME280;15376;48.540;9.268;2022-11-15T10:35:38;96946.91;;;12.09;100.00
5283;BME280;15376;48.540;9.268;2022-11-15T10:38:10;96940.13;;;12.32;100.00
5283;BME280;15376;48.540;9.268;2022-11-15T10:40:36;96942.97;;;12.44;100.00
5283;BME280;15376;48.540;9.268;2022-11-15T10:43:13;96948.28;;;12.51;100.00
5283;BME280;15376;48.540;9.268;2022-11-15T10:45:43;96945.63;;;12.51;100.00
5283;BME280;15376;48.540;9.268;2022-11-15T10:50:38;96931.13;;;12.33;100.00
5283;BME280;15376;48.540;9.268;2022-11-15T10:53:15;96934.00;;;12.19;100.00
5283;BME280;15376;48.540;9.268;2022-11-15T10:55:46;96928.66;;;12.25;100.00
5283;BME280;15376;48.540;9.268;2022-11-15T10:58:42;96927.03;;;12.24;100.00
5283;BME280;15376;48.540;9.268;2022-11-15T11:03:41;96931.13;;;12.07;100.00
5283;BME280;15376;48.540;9.268;2022-11-15T11:06:13;96929.53;;;11.93;100.00
5283;BME280;15376;48.540;9.268;2022-11-15T11:08:39;96931.09;;;11.67;100.00
5283;BME280;15376;48.540;9.268;2022-11-15T11:11:06;96919.84;;;11.52;100.00
5283;BME280;15376;48.540;9.268;2022-11-15T11:13:37;96910.22;;;11.38;100.00
5283;BME280;15376;48.540;9.268;2022-11-15T11:16:34;96923.75;;;11.56;100.00
5283;BME280;15376;48.540;9.268;2022-11-15T11:21:51;96910.66;;;11.68;100.00
5283;BME280;15376;48.540;9.268;2022-11-15T11:27:37;96882.81;;;11.70;100.00
5283;BME280;15376;48.540;9.268;2022-11-15T11:45:31;96895.31;;;12.03;100.00
5283;BME280;15376;48.540;9.268;2022-11-15T11:49:01;96884.84;;;12.21;100.00
5283;BME280;15376;48.540;9.268;2022-11-15T11:51:30;96878.22;;;12.50;100.00
5283;BME280;15376;48.540;9.268;2022-11-15T11:54:09;96867.94;;;12.67;100.00
5283;BME280;15376;48.540;9.268;2022-11-15T11:56:39;96861.16;;;12.64;100.00
5283;BME280;15376;48.540;9.268;2022-11-15T11:59:18;96872.09;;;12.94;100.00
5283;BME280;15376;48.540;9.268;2022-11-15T12:01:46;96878.66;;;12.92;100.00
5283;BME280;15376;48.540;9.268;2022-11-15T12:06:54;96874.38;;;12.84;100.00
5283;BME280;15376;48.540;9.268;2022-11-15T12:09:29;96867.72;;;12.62;100.00
5283;BME280;15376;48.540;9.268;2022-11-15T12:15:04;96853.00;;;12.59;100.00
5283;BME280;15376;48.540;9.268;2022-11-15T12:17:35;96855.22;;;12.62;100.00
5283;BME280;15376;48.540;9.268;2022-11-15T12:20:15;96843.66;;;12.82;100.00
5283;BME280;15376;48.540;9.268;2022-11-15T12:22:44;96851.44;;;12.83;100.00
5283;BME280;15376;48.540;9.268;2022-11-15T12:25:30;96831.44;;;12.67;100.00
5283;BME280;15376;48.540;9.268;2022-11-15T12:28:01;96845.50;;;12.81;100.00
5283;BME280;15376;48.540;9.268;2022-11-15T12:31:01;96842.50;;;12.71;100.00
5283;BME280;15376;48.540;9.268;2022-11-15T12:36:01;96850.91;;;12.68;100.00
5283;BME280;15376;48.540;9.268;2022-11-15T12:41:18;96842.13;;;12.61;100.00
5283;BME280;15376;48.540;9.268;2022-11-15T12:43:45;96842.34;;;12.59;100.00
5283;BME280;15376;48.540;9.268;2022-11-15T12:48:59;96833.28;;;12.67;100.00
5283;BME280;15376;48.540;9.268;2022-11-15T12:59:58;96816.78;;;13.21;100.00
5283;BME280;15376;48.540;9.268;2022-11-15T13:02:39;96804.41;;;13.33;100.00
5283;BME280;15376;48.540;9.268;2022-11-15T13:17:54;96783.03;;;13.40;100.00
5283;BME280;15376;48.540;9.268;2022-11-15T13:22:58;96784.94;;;13.58;100.00
5283;BME280;15376;48.540;9.268;2022-11-15T13:30:40;96766.72;;;13.73;100.00
5283;BME280;15376;48.540;9.268;2022-11-15T13:33:15;96764.25;;;13.72;100.00
5283;BME280;15376;48.540;9.268;2022-11-15T13:35:42;96755.59;;;13.76;100.00
5283;BME280;15376;48.540;9.268;2022-11-15T13:38:27;96754.84;;;13.69;100.00
5283;BME280;15376;48.540;9.268;2022-11-15T13:40:53;96750.38;;;13.63;100.00
5283;BME280;15376;48.540;9.268;2022-11-15T13:46:14;96752.91;;;13.33;100.00
5283;BME280;15376;48.540;9.268;2022-11-15T13:48:41;96745.94;;;13.07;100.00
5283;BME280;15376;48.540;9.268;2022-11-15T13:59:49;96734.28;;;12.39;100.00
5283;BME280;15376;48.540;9.268;2022-11-15T14:02:18;96730.22;;;12.29;100.00
5283;BME280;15376;48.540;9.268;2022-11-15T14:05:13;96730.03;;;12.24;100.00
5283;BME280;15376;48.540;9.268;2022-11-15T14:07:35;96706.34;;;12.10;100.00
5283;BME280;15376;48.540;9.268;2022-11-15T14:12:57;96707.41;;;12.02;100.00
5283;BME280;15376;48.540;9.268;2022-11-15T14:15:40;96688.44;;;11.92;100.00
5283;BME280;15376;48.540;9.268;2022-11-15T14:18:06;96697.56;;;12.02;100.00
5283;BME280;15376;48.540;9.268;2022-11-15T14:20:36;96701.47;;;12.00;100.00
5283;BME280;15376;48.540;9.268;2022-11-15T14:23:26;96697.03;;;11.87;100.00
5283;BME280;15376;48.540;9.268;2022-11-15T14:25:55;96684.38;;;11.83;100.00
5283;BME280;15376;48.540;9.268;2022-11-15T14:30:50;96683.72;;;11.94;100.00
5283;BME280;15376;48.540;9.268;2022-11-15T14:35:46;96663.28;;;11.88;100.00
5283;BME280;15376;48.540;9.268;2022-11-15T14:38:12;96663.69;;;11.85;100.00
5283;BME280;15376;48.540;9.268;2022-11-15T14:40:37;96672.50;;;11.79;100.00
5283;BME280;15376;48.540;9.268;2022-11-15T14:43:03;96676.38;;;11.76;100.00
5283;BME280;15376;48.540;9.268;2022-11-15T14:45:28;96680.69;;;11.70;100.00
5283;BME280;15376;48.540;9.268;2022-11-15T14:47:53;96670.94;;;11.58;100.00
5283;BME280;15376;48.540;9.268;2022-11-15T14:50:20;96671.34;;;11.48;100.00
5283;BME280;15376;48.540;9.268;2022-11-15T14:52:47;96676.25;;;11.51;100.00
5283;BME280;15376;48.540;9.268;2022-11-15T14:55:23;96677.69;;;11.54;100.00
5283;BME280;15376;48.540;9.268;2022-11-15T14:57:49;96666.47;;;11.45;100.00
5283;BME280;15376;48.540;9.268;2022-11-15T15:00:15;96671.38;;;11.35;100.00
5283;BME280;15376;48.540;9.268;2022-11-15T15:02:42;96666.69;;;11.30;100.00
5283;BME280;15376;48.540;9.268;2022-11-15T15:07:39;96668.94;;;11.27;100.00
5283;BME280;15376;48.540;9.268;2022-11-15T15:10:04;96653.84;;;11.14;100.00
5283;BME280;15376;48.540;9.268;2022-11-15T15:12:30;96658.75;;;11.11;100.00
5283;BME280;15376;48.540;9.268;2022-11-15T15:14:55;96652.44;;;10.98;100.00
5283;BME280;15376;48.540;9.268;2022-11-15T15:17:21;96648.75;;;10.86;100.00
5283;BME280;15376;48.540;9.268;2022-11-15T15:19:46;96645.50;;;10.71;100.00
5283;BME280;15376;48.540;9.268;2022-11-15T15:22:15;96655.31;;;10.64;100.00
5283;BME280;15376;48.540;9.268;2022-11-15T15:24:41;96646.91;;;10.54;100.00
5283;BME280;15376;48.540;9.268;2022-11-15T15:27:06;96625.88;;;10.39;100.00
5283;BME280;15376;48.540;9.268;2022-11-15T15:29:32;96637.72;;;10.56;100.00
5283;BME280;15376;48.540;9.268;2022-11-15T15:31:57;96632.41;;;10.56;100.00
5283;BME280;15376;48.540;9.268;2022-11-15T15:34:23;96632.22;;;10.58;100.00
5283;BME280;15376;48.540;9.268;2022-11-15T15:36:48;96634.03;;;10.51;100.00